sensor_id;sensor_type;location;lat;lon;timestamp;P1;durP1;ratioP1;P2;durP2;ratioP2
70667;SDS011;58242;51.250;-1.118;2023-07-20T00:02:08;1.40;;;1.40;;
70667;SDS011;58242;51.250;-1.118;2023-07-20T00:04:34;1.45;;;1.45;;
70667;SDS011;58242;51.250;-1.118;2023-07-20T00:06:59;1.30;;;1.30;;
70667;SDS011;58242;51.250;-1.118;2023-07-20T00:09:27;1.50;;;1.40;;
70667;SDS011;58242;51.250;-1.118;2023-07-20T00:11:53;1.55;;;1.55;;
70667;SDS011;58242;51.250;-1.118;2023-07-20T00:14:18;1.23;;;1.23;;
70667;SDS011;58242;51.250;-1.118;2023-07-20T00:16:47;1.50;;;1.50;;
70667;SDS011;58242;51.250;-1.118;2023-07-20T00:19:21;1.40;;;1.40;;
70667;SDS011;58242;51.250;-1.118;2023-07-20T00:21:48;1.50;;;1.50;;
70667;SDS011;58242;51.250;-1.118;2023-07-20T00:24:13;1.40;;;1.40;;
70667;SDS011;58242;51.250;-1.118;2023-07-20T00:26:38;1.50;;;1.50;;
70667;SDS011;58242;51.250;-1.118;2023-07-20T00:29:04;1.40;;;1.40;;
70667;SDS011;58242;51.250;-1.118;2023-07-20T00:31:29;1.50;;;1.40;;
70667;SDS011;58242;51.250;-1.118;2023-07-20T00:33:54;1.60;;;1.60;;
70667;SDS011;58242;51.250;-1.118;2023-07-20T00:36:19;1.50;;;1.50;;
70667;SDS011;58242;51.250;-1.118;2023-07-20T00:38:45;1.60;;;1.50;;
70667;SDS011;58242;51.250;-1.118;2023-07-20T00:41:10;1.33;;;1.33;;
70667;SDS011;58242;51.250;-1.118;2023-07-20T00:43:36;1.40;;;1.40;;
70667;SDS011;58242;51.250;-1.118;2023-07-20T00:46:01;1.20;;;1.20;;
70667;SDS011;58242;51.250;-1.118;2023-07-20T00:48:28;1.33;;;1.33;;
70667;SDS011;58242;51.250;-1.118;2023-07-20T00:50:54;1.50;;;1.50;;
70667;SDS011;58242;51.250;-1.118;2023-07-20T00:53:20;1.40;;;1.40;;
70667;SDS011;58242;51.250;-1.118;2023-07-20T00:55:46;1.58;;;1.50;;
70667;SDS011;58242;51.250;-1.118;2023-07-20T00:58:11;1.50;;;1.50;;
70667;SDS011;58242;51.250;-1.118;2023-07-20T01:00:37;1.65;;;1.55;;
70667;SDS011;58242;51.250;-1.118;2023-07-20T01:03:02;1.30;;;1.30;;
70667;SDS011;58242;51.250;-1.118;2023-07-20T01:06:03;1.42;;;1.33;;
70667;SDS011;58242;51.250;-1.118;2023-07-20T01:11:06;1.30;;;1.30;;
70667;SDS011;58242;51.250;-1.118;2023-07-20T01:13:54;1.10;;;1.10;;
70667;SDS011;58242;51.250;-1.118;2023-07-20T01:16:20;1.30;;;1.30;;
70667;SDS011;58242;51.250;-1.118;2023-07-20T01:18:45;1.45;;;1.35;;
70667;SDS011;58242;51.250;-1.118;2023-07-20T01:21:12;1.40;;;1.30;;
70667;SDS011;58242;51.250;-1.118;2023-07-20T01:29:28;1.45;;;1.45;;
70667;SDS011;58242;51.250;-1.118;2023-07-20T01:32:07;1.40;;;1.40;;
70667;SDS011;58242;51.250;-1.118;2023-07-20T01:34:35;1.20;;;1.20;;
70667;SDS011;58242;51.250;-1.118;2023-07-20T01:37:01;1.35;;;1.35;;
70667;SDS011;58242;51.250;-1.118;2023-07-20T01:39:28;1.55;;;1.55;;
70667;SDS011;58242;51.250;-1.118;2023-07-20T01:41:54;1.52;;;1.42;;
70667;SDS011;58242;51.250;-1.118;2023-07-20T01:44:19;1.35;;;1.35;;
70667;SDS011;58242;51.250;-1.118;2023-07-20T01:46:45;1.40;;;1.40;;
70667;SDS011;58242;51.250;-1.118;2023-07-20T01:49:10;1.50;;;1.50;;
70667;SDS011;58242;51.250;-1.118;2023-07-20T01:51:35;1.40;;;1.40;;
70667;SDS011;58242;51.250;-1.118;2023-07-20T01:54:01;1.40;;;1.40;;
70667;SDS011;58242;51.250;-1.118;2023-07-20T01:56:26;1.70;;;1.60;;
70667;SDS011;58242;51.250;-1.118;2023-07-20T01:58:51;1.45;;;1.35;;
70667;SDS011;58242;51.250;-1.118;2023-07-20T02:01:17;1.45;;;1.40;;
70667;SDS011;58242;51.250;-1.118;2023-07-20T02:03:42;1.55;;;1.55;;
70667;SDS011;58242;51.250;-1.118;2023-07-20T02:06:07;1.50;;;1.40;;
70667;SDS011;58242;51.250;-1.118;2023-07-20T02:08:33;1.50;;;1.50;;
70667;SDS011;58242;51.250;-1.118;2023-07-20T02:10:58;1.20;;;1.20;;
70667;SDS011;58242;51.250;-1.118;2023-07-20T02:13:23;1.25;;;1.25;;
70667;SDS011;58242;51.250;-1.118;2023-07-20T02:15:49;2.35;;;1.63;;
70667;SDS011;58242;51.250;-1.118;2023-07-20T02:18:14;1.60;;;1.50;;
70667;SDS011;58242;51.250;-1.118;2023-07-20T02:20:40;1.30;;;1.30;;
70667;SDS011;58242;51.250;-1.118;2023-07-20T02:23:06;1.23;;;1.23;;
70667;SDS011;58242;51.250;-1.118;2023-07-20T02:25:31;1.35;;;1.35;;
70667;SDS011;58242;51.250;-1.118;2023-07-20T02:27:56;1.50;;;1.50;;
70667;SDS011;58242;51.250;-1.118;2023-07-20T02:30:22;1.38;;;1.38;;
70667;SDS011;58242;51.250;-1.118;2023-07-20T02:32:47;1.40;;;1.40;;
70667;SDS011;58242;51.250;-1.118;2023-07-20T02:35:14;1.30;;;1.30;;
70667;SDS011;58242;51.250;-1.118;2023-07-20T02:37:39;1.33;;;1.33;;
70667;SDS011;58242;51.250;-1.118;2023-07-20T02:40:05;1.20;;;1.20;;
70667;SDS011;58242;51.250;-1.118;2023-07-20T02:42:32;1.38;;;1.38;;
70667;SDS011;58242;51.250;-1.118;2023-07-20T02:44:57;1.50;;;1.40;;
70667;SDS011;58242;51.250;-1.118;2023-07-20T02:47:23;1.40;;;1.40;;
70667;SDS011;58242;51.250;-1.118;2023-07-20T02:49:48;1.40;;;1.40;;
70667;SDS011;58242;51.250;-1.118;2023-07-20T02:52:14;1.73;;;1.67;;
70667;SDS011;58242;51.250;-1.118;2023-07-20T02:54:39;1.40;;;1.40;;
70667;SDS011;58242;51.250;-1.118;2023-07-20T02:57:04;1.70;;;1.60;;
70667;SDS011;58242;51.250;-1.118;2023-07-20T02:59:30;1.48;;;1.48;;
70667;SDS011;58242;51.250;-1.118;2023-07-20T03:01:55;1.65;;;1.60;;
70667;SDS011;58242;51.250;-1.118;2023-07-20T03:04:22;1.67;;;1.60;;
70667;SDS011;58242;51.250;-1.118;2023-07-20T03:06:48;1.48;;;1.48;;
70667;SDS011;58242;51.250;-1.118;2023-07-20T03:09:13;1.58;;;1.45;;
70667;SDS011;58242;51.250;-1.118;2023-07-20T03:11:40;1.42;;;1.42;;
70667;SDS011;58242;51.250;-1.118;2023-07-20T03:14:05;1.50;;;1.50;;
70667;SDS011;58242;51.250;-1.118;2023-07-20T03:16:31;1.40;;;1.40;;
70667;SDS011;58242;51.250;-1.118;2023-07-20T03:18:58;1.35;;;1.35;;
70667;SDS011;58242;51.250;-1.118;2023-07-20T03:21:24;1.50;;;1.50;;
70667;SDS011;58242;51.250;-1.118;2023-07-20T03:23:51;1.50;;;1.50;;
70667;SDS011;58242;51.250;-1.118;2023-07-20T03:26:17;1.40;;;1.40;;
70667;SDS011;58242;51.250;-1.118;2023-07-20T03:28:42;1.77;;;1.67;;
70667;SDS011;58242;51.250;-1.118;2023-07-20T03:31:07;1.50;;;1.50;;
70667;SDS011;58242;51.250;-1.118;2023-07-20T03:33:33;1.45;;;1.45;;
70667;SDS011;58242;51.250;-1.118;2023-07-20T03:35:59;1.50;;;1.50;;
70667;SDS011;58242;51.250;-1.118;2023-07-20T03:38:25;1.33;;;1.33;;
70667;SDS011;58242;51.250;-1.118;2023-07-20T03:40:55;1.58;;;1.48;;
70667;SDS011;58242;51.250;-1.118;2023-07-20T03:43:25;1.60;;;1.50;;
70667;SDS011;58242;51.250;-1.118;2023-07-20T03:45:51;1.48;;;1.38;;
70667;SDS011;58242;51.250;-1.118;2023-07-20T03:48:18;1.52;;;1.52;;
70667;SDS011;58242;51.250;-1.118;2023-07-20T03:50:47;1.50;;;1.50;;
70667;SDS011;58242;51.250;-1.118;2023-07-20T03:53:14;1.88;;;1.88;;
70667;SDS011;58242;51.250;-1.118;2023-07-20T03:55:41;1.85;;;1.75;;
70667;SDS011;58242;51.250;-1.118;2023-07-20T03:58:09;1.73;;;1.63;;
70667;SDS011;58242;51.250;-1.118;2023-07-20T04:00:34;1.55;;;1.55;;
70667;SDS011;58242;51.250;-1.118;2023-07-20T04:03:00;1.75;;;1.65;;
70667;SDS011;58242;51.250;-1.118;2023-07-20T04:05:25;1.73;;;1.70;;
70667;SDS011;58242;51.250;-1.118;2023-07-20T04:07:51;1.60;;;1.60;;
70667;SDS011;58242;51.250;-1.118;2023-07-20T04:10:17;1.50;;;1.50;;
70667;SDS011;58242;51.250;-1.118;2023-07-20T04:12:43;1.60;;;1.60;;
70667;SDS011;58242;51.250;-1.118;2023-07-20T04:15:09;1.77;;;1.67;;
70667;SDS011;58242;51.250;-1.118;2023-07-20T04:17:35;2.00;;;1.90;;
70667;SDS011;58242;51.250;-1.118;2023-07-20T04:20:00;1.73;;;1.60;;
70667;SDS011;58242;51.250;-1.118;2023-07-20T04:22:26;1.65;;;1.65;;
70667;SDS011;58242;51.250;-1.118;2023-07-20T04:24:52;1.77;;;1.75;;
70667;SDS011;58242;51.250;-1.118;2023-07-20T04:27:17;1.58;;;1.58;;
70667;SDS011;58242;51.250;-1.118;2023-07-20T04:29:43;1.70;;;1.70;;
70667;SDS011;58242;51.250;-1.118;2023-07-20T04:32:08;1.80;;;1.70;;
70667;SDS011;58242;51.250;-1.118;2023-07-20T04:34:33;1.73;;;1.73;;
70667;SDS011;58242;51.250;-1.118;2023-07-20T04:37:02;2.15;;;1.90;;
70667;SDS011;58242;51.250;-1.118;2023-07-20T04:39:28;1.70;;;1.70;;
70667;SDS011;58242;51.250;-1.118;2023-07-20T04:41:53;1.83;;;1.73;;
70667;SDS011;58242;51.250;-1.118;2023-07-20T04:44:19;1.80;;;1.70;;
70667;SDS011;58242;51.250;-1.118;2023-07-20T04:46:44;1.60;;;1.50;;
70667;SDS011;58242;51.250;-1.118;2023-07-20T04:49:09;1.90;;;1.80;;
70667;SDS011;58242;51.250;-1.118;2023-07-20T04:51:37;1.65;;;1.65;;
70667;SDS011;58242;51.250;-1.118;2023-07-20T04:54:03;1.92;;;1.83;;
70667;SDS011;58242;51.250;-1.118;2023-07-20T04:56:28;1.70;;;1.70;;
70667;SDS011;58242;51.250;-1.118;2023-07-20T04:58:53;2.58;;;1.63;;
70667;SDS011;58242;51.250;-1.118;2023-07-20T05:01:19;1.55;;;1.55;;
70667;SDS011;58242;51.250;-1.118;2023-07-20T05:03:44;1.63;;;1.63;;
70667;SDS011;58242;51.250;-1.118;2023-07-20T05:06:09;1.60;;;1.50;;
70667;SDS011;58242;51.250;-1.118;2023-07-20T05:08:35;1.67;;;1.65;;
70667;SDS011;58242;51.250;-1.118;2023-07-20T05:11:00;1.60;;;1.60;;
70667;SDS011;58242;51.250;-1.118;2023-07-20T05:13:25;1.60;;;1.60;;
70667;SDS011;58242;51.250;-1.118;2023-07-20T05:15:53;1.40;;;1.40;;
70667;SDS011;58242;51.250;-1.118;2023-07-20T05:18:19;1.60;;;1.55;;
70667;SDS011;58242;51.250;-1.118;2023-07-20T05:20:48;1.40;;;1.40;;
70667;SDS011;58242;51.250;-1.118;2023-07-20T05:25:42;1.60;;;1.55;;
70667;SDS011;58242;51.250;-1.118;2023-07-20T05:28:07;1.70;;;1.60;;
70667;SDS011;58242;51.250;-1.118;2023-07-20T05:30:32;1.63;;;1.58;;
70667;SDS011;58242;51.250;-1.118;2023-07-20T05:32:58;1.50;;;1.50;;
70667;SDS011;58242;51.250;-1.118;2023-07-20T05:35:23;1.45;;;1.45;;
70667;SDS011;58242;51.250;-1.118;2023-07-20T05:37:48;1.70;;;1.60;;
70667;SDS011;58242;51.250;-1.118;2023-07-20T05:40:14;1.60;;;1.60;;
70667;SDS011;58242;51.250;-1.118;2023-07-20T05:42:43;1.60;;;1.60;;
70667;SDS011;58242;51.250;-1.118;2023-07-20T05:45:09;1.67;;;1.58;;
70667;SDS011;58242;51.250;-1.118;2023-07-20T05:47:34;1.80;;;1.70;;
70667;SDS011;58242;51.250;-1.118;2023-07-20T05:50:00;1.35;;;1.35;;
70667;SDS011;58242;51.250;-1.118;2023-07-20T05:52:25;1.65;;;1.65;;
70667;SDS011;58242;51.250;-1.118;2023-07-20T05:54:51;1.67;;;1.58;;
70667;SDS011;58242;51.250;-1.118;2023-07-20T05:57:16;1.80;;;1.70;;
70667;SDS011;58242;51.250;-1.118;2023-07-20T05:59:41;1.80;;;1.70;;
70667;SDS011;58242;51.250;-1.118;2023-07-20T06:02:09;1.63;;;1.60;;
70667;SDS011;58242;51.250;-1.118;2023-07-20T06:04:35;1.70;;;1.70;;
70667;SDS011;58242;51.250;-1.118;2023-07-20T06:07:00;1.60;;;1.60;;
70667;SDS011;58242;51.250;-1.118;2023-07-20T06:09:26;1.80;;;1.70;;
70667;SDS011;58242;51.250;-1.118;2023-07-20T06:11:52;2.00;;;1.90;;
70667;SDS011;58242;51.250;-1.118;2023-07-20T06:14:17;2.00;;;1.90;;
70667;SDS011;58242;51.250;-1.118;2023-07-20T06:16:43;1.88;;;1.88;;
70667;SDS011;58242;51.250;-1.118;2023-07-20T06:19:08;1.70;;;1.70;;
70667;SDS011;58242;51.250;-1.118;2023-07-20T06:21:36;1.70;;;1.60;;
70667;SDS011;58242;51.250;-1.118;2023-07-20T06:24:01;2.03;;;1.92;;
70667;SDS011;58242;51.250;-1.118;2023-07-20T06:26:26;1.83;;;1.73;;
70667;SDS011;58242;51.250;-1.118;2023-07-20T06:28:53;1.52;;;1.50;;
70667;SDS011;58242;51.250;-1.118;2023-07-20T06:31:19;1.75;;;1.65;;
70667;SDS011;58242;51.250;-1.118;2023-07-20T06:33:44;1.90;;;1.83;;
70667;SDS011;58242;51.250;-1.118;2023-07-20T06:36:09;1.75;;;1.65;;
70667;SDS011;58242;51.250;-1.118;2023-07-20T06:38:35;2.10;;;2.00;;
70667;SDS011;58242;51.250;-1.118;2023-07-20T06:41:00;1.38;;;1.38;;
70667;SDS011;58242;51.250;-1.118;2023-07-20T06:43:25;1.40;;;1.40;;
70667;SDS011;58242;51.250;-1.118;2023-07-20T06:45:51;1.98;;;1.88;;
70667;SDS011;58242;51.250;-1.118;2023-07-20T06:48:18;1.30;;;1.30;;
70667;SDS011;58242;51.250;-1.118;2023-07-20T06:50:44;1.80;;;1.70;;
70667;SDS011;58242;51.250;-1.118;2023-07-20T06:53:09;1.70;;;1.60;;
70667;SDS011;58242;51.250;-1.118;2023-07-20T06:55:34;1.60;;;1.60;;
70667;SDS011;58242;51.250;-1.118;2023-07-20T06:57:59;1.58;;;1.50;;
70667;SDS011;58242;51.250;-1.118;2023-07-20T07:00:25;1.80;;;1.70;;
70667;SDS011;58242;51.250;-1.118;2023-07-20T07:02:50;1.80;;;1.70;;
70667;SDS011;58242;51.250;-1.118;2023-07-20T07:05:15;1.52;;;1.42;;
70667;SDS011;58242;51.250;-1.118;2023-07-20T07:07:41;1.58;;;1.55;;
70667;SDS011;58242;51.250;-1.118;2023-07-20T07:10:07;2.03;;;1.92;;
70667;SDS011;58242;51.250;-1.118;2023-07-20T07:12:33;2.28;;;2.17;;
70667;SDS011;58242;51.250;-1.118;2023-07-20T07:14:59;2.20;;;2.10;;
70667;SDS011;58242;51.250;-1.118;2023-07-20T07:17:25;2.00;;;1.90;;
70667;SDS011;58242;51.250;-1.118;2023-07-20T07:19:51;1.90;;;1.80;;
70667;SDS011;58242;51.250;-1.118;2023-07-20T07:22:19;2.25;;;2.15;;
70667;SDS011;58242;51.250;-1.118;2023-07-20T07:24:45;1.67;;;1.67;;
70667;SDS011;58242;51.250;-1.118;2023-07-20T07:27:10;1.60;;;1.60;;
70667;SDS011;58242;51.250;-1.118;2023-07-20T07:29:36;1.58;;;1.48;;
70667;SDS011;58242;51.250;-1.118;2023-07-20T07:32:01;1.55;;;1.45;;
70667;SDS011;58242;51.250;-1.118;2023-07-20T07:34:27;1.80;;;1.70;;
70667;SDS011;58242;51.250;-1.118;2023-07-20T07:36:52;1.60;;;1.60;;
70667;SDS011;58242;51.250;-1.118;2023-07-20T07:39:18;2.10;;;2.00;;
70667;SDS011;58242;51.250;-1.118;2023-07-20T07:41:44;2.03;;;1.92;;
70667;SDS011;58242;51.250;-1.118;2023-07-20T07:44:09;1.77;;;1.67;;
70667;SDS011;58242;51.250;-1.118;2023-07-20T07:46:34;2.35;;;1.45;;
70667;SDS011;58242;51.250;-1.118;2023-07-20T07:48:59;1.77;;;1.67;;
70667;SDS011;58242;51.250;-1.118;2023-07-20T07:51:25;1.25;;;1.25;;
70667;SDS011;58242;51.250;-1.118;2023-07-20T07:53:52;1.42;;;1.42;;
70667;SDS011;58242;51.250;-1.118;2023-07-20T07:56:17;1.60;;;1.50;;
70667;SDS011;58242;51.250;-1.118;2023-07-20T07:58:47;1.50;;;1.40;;
70667;SDS011;58242;51.250;-1.118;2023-07-20T08:01:12;1.30;;;1.30;;
70667;SDS011;58242;51.250;-1.118;2023-07-20T08:03:38;1.52;;;1.52;;
70667;SDS011;58242;51.250;-1.118;2023-07-20T08:06:03;1.30;;;1.30;;
70667;SDS011;58242;51.250;-1.118;2023-07-20T08:08:30;1.45;;;1.45;;
70667;SDS011;58242;51.250;-1.118;2023-07-20T08:10:56;1.40;;;1.40;;
70667;SDS011;58242;51.250;-1.118;2023-07-20T08:13:21;1.40;;;1.40;;
70667;SDS011;58242;51.250;-1.118;2023-07-20T08:15:48;1.40;;;1.40;;
70667;SDS011;58242;51.250;-1.118;2023-07-20T08:18:16;1.13;;;1.13;;
70667;SDS011;58242;51.250;-1.118;2023-07-20T08:20:45;1.40;;;1.40;;
70667;SDS011;58242;51.250;-1.118;2023-07-20T08:23:11;1.70;;;1.60;;
70667;SDS011;58242;51.250;-1.118;2023-07-20T08:25:37;1.27;;;1.27;;
70667;SDS011;58242;51.250;-1.118;2023-07-20T08:28:04;1.00;;;1.00;;
70667;SDS011;58242;51.250;-1.118;2023-07-20T08:30:39;1.05;;;1.05;;
70667;SDS011;58242;51.250;-1.118;2023-07-20T08:33:05;1.10;;;1.10;;
70667;SDS011;58242;51.250;-1.118;2023-07-20T08:35:30;1.30;;;1.20;;
70667;SDS011;58242;51.250;-1.118;2023-07-20T08:37:56;0.80;;;0.80;;
70667;SDS011;58242;51.250;-1.118;2023-07-20T08:40:21;1.20;;;1.20;;
70667;SDS011;58242;51.250;-1.118;2023-07-20T08:42:46;1.05;;;1.05;;
70667;SDS011;58242;51.250;-1.118;2023-07-20T08:45:13;0.95;;;0.95;;
70667;SDS011;58242;51.250;-1.118;2023-07-20T08:47:39;1.00;;;0.95;;
70667;SDS011;58242;51.250;-1.118;2023-07-20T08:50:07;0.90;;;0.90;;
70667;SDS011;58242;51.250;-1.118;2023-07-20T08:52:33;0.82;;;0.82;;
70667;SDS011;58242;51.250;-1.118;2023-07-20T08:54:59;0.80;;;0.80;;
70667;SDS011;58242;51.250;-1.118;2023-07-20T08:57:28;0.80;;;0.80;;
70667;SDS011;58242;51.250;-1.118;2023-07-20T08:59:54;0.90;;;0.90;;
70667;SDS011;58242;51.250;-1.118;2023-07-20T09:02:20;0.90;;;0.82;;
70667;SDS011;58242;51.250;-1.118;2023-07-20T09:04:50;1.10;;;1.10;;
70667;SDS011;58242;51.250;-1.118;2023-07-20T09:07:15;0.82;;;0.82;;
70667;SDS011;58242;51.250;-1.118;2023-07-20T09:09:40;1.20;;;1.20;;
70667;SDS011;58242;51.250;-1.118;2023-07-20T09:12:16;1.10;;;1.02;;
70667;SDS011;58242;51.250;-1.118;2023-07-20T09:14:44;1.20;;;1.20;;
70667;SDS011;58242;51.250;-1.118;2023-07-20T09:17:13;0.93;;;0.93;;
70667;SDS011;58242;51.250;-1.118;2023-07-20T09:19:46;0.82;;;0.82;;
70667;SDS011;58242;51.250;-1.118;2023-07-20T09:22:12;1.00;;;1.00;;
70667;SDS011;58242;51.250;-1.118;2023-07-20T09:24:37;0.90;;;0.90;;
70667;SDS011;58242;51.250;-1.118;2023-07-20T09:27:03;1.00;;;1.00;;
70667;SDS011;58242;51.250;-1.118;2023-07-20T09:29:29;1.23;;;1.15;;
70667;SDS011;58242;51.250;-1.118;2023-07-20T09:32:01;0.85;;;0.80;;
70667;SDS011;58242;51.250;-1.118;2023-07-20T09:34:30;1.15;;;0.90;;
70667;SDS011;58242;51.250;-1.118;2023-07-20T09:36:59;0.70;;;0.70;;
70667;SDS011;58242;51.250;-1.118;2023-07-20T09:39:25;0.70;;;0.70;;
70667;SDS011;58242;51.250;-1.118;2023-07-20T09:41:51;0.60;;;0.60;;
70667;SDS011;58242;51.250;-1.118;2023-07-20T09:44:17;1.00;;;1.00;;
70667;SDS011;58242;51.250;-1.118;2023-07-20T09:46:48;1.20;;;0.70;;
70667;SDS011;58242;51.250;-1.118;2023-07-20T09:49:14;0.60;;;0.60;;
70667;SDS011;58242;51.250;-1.118;2023-07-20T09:51:42;0.70;;;0.70;;
70667;SDS011;58242;51.250;-1.118;2023-07-20T09:54:09;0.70;;;0.70;;
70667;SDS011;58242;51.250;-1.118;2023-07-20T09:56:35;0.73;;;0.73;;
70667;SDS011;58242;51.250;-1.118;2023-07-20T09:59:01;0.50;;;0.50;;
70667;SDS011;58242;51.250;-1.118;2023-07-20T10:01:26;0.90;;;0.90;;
70667;SDS011;58242;51.250;-1.118;2023-07-20T10:03:54;0.70;;;0.70;;
70667;SDS011;58242;51.250;-1.118;2023-07-20T10:06:23;0.70;;;0.70;;
70667;SDS011;58242;51.250;-1.118;2023-07-20T10:08:49;0.90;;;0.90;;
70667;SDS011;58242;51.250;-1.118;2023-07-20T10:11:17;1.00;;;1.00;;
70667;SDS011;58242;51.250;-1.118;2023-07-20T10:13:45;0.70;;;0.70;;
70667;SDS011;58242;51.250;-1.118;2023-07-20T10:16:15;1.10;;;1.10;;
70667;SDS011;58242;51.250;-1.118;2023-07-20T10:22:06;0.90;;;0.90;;
70667;SDS011;58242;51.250;-1.118;2023-07-20T10:24:37;0.93;;;0.93;;
70667;SDS011;58242;51.250;-1.118;2023-07-20T10:27:04;1.00;;;1.00;;
70667;SDS011;58242;51.250;-1.118;2023-07-20T10:29:30;1.85;;;0.90;;
70667;SDS011;58242;51.250;-1.118;2023-07-20T10:31:56;0.80;;;0.80;;
70667;SDS011;58242;51.250;-1.118;2023-07-20T10:34:22;0.90;;;0.90;;
70667;SDS011;58242;51.250;-1.118;2023-07-20T10:36:49;0.82;;;0.82;;
70667;SDS011;58242;51.250;-1.118;2023-07-20T10:39:23;1.00;;;1.00;;
70667;SDS011;58242;51.250;-1.118;2023-07-20T10:41:49;0.80;;;0.80;;
70667;SDS011;58242;51.250;-1.118;2023-07-20T10:44:15;0.70;;;0.70;;
70667;SDS011;58242;51.250;-1.118;2023-07-20T10:46:45;0.60;;;0.60;;
70667;SDS011;58242;51.250;-1.118;2023-07-20T10:49:11;0.82;;;0.82;;
70667;SDS011;58242;51.250;-1.118;2023-07-20T10:56:43;1.00;;;1.00;;
70667;SDS011;58242;51.250;-1.118;2023-07-20T10:59:19;0.82;;;0.82;;
70667;SDS011;58242;51.250;-1.118;2023-07-20T11:02:02;0.70;;;0.70;;
70667;SDS011;58242;51.250;-1.118;2023-07-20T11:04:44;0.90;;;0.90;;
70667;SDS011;58242;51.250;-1.118;2023-07-20T11:07:10;0.80;;;0.80;;
70667;SDS011;58242;51.250;-1.118;2023-07-20T11:09:41;1.08;;;1.08;;
70667;SDS011;58242;51.250;-1.118;2023-07-20T11:14:39;0.90;;;0.90;;
70667;SDS011;58242;51.250;-1.118;2023-07-20T11:17:22;0.90;;;0.90;;
70667;SDS011;58242;51.250;-1.118;2023-07-20T11:19:58;0.85;;;0.85;;
70667;SDS011;58242;51.250;-1.118;2023-07-20T11:22:25;0.90;;;0.90;;
70667;SDS011;58242;51.250;-1.118;2023-07-20T11:24:54;0.98;;;0.98;;
70667;SDS011;58242;51.250;-1.118;2023-07-20T11:27:20;0.95;;;0.95;;
70667;SDS011;58242;51.250;-1.118;2023-07-20T11:29:47;1.10;;;1.10;;
70667;SDS011;58242;51.250;-1.118;2023-07-20T11:32:22;1.10;;;1.10;;
70667;SDS011;58242;51.250;-1.118;2023-07-20T11:35:00;1.00;;;1.00;;
70667;SDS011;58242;51.250;-1.118;2023-07-20T11:37:25;1.10;;;1.10;;
70667;SDS011;58242;51.250;-1.118;2023-07-20T11:39:54;1.00;;;1.00;;
70667;SDS011;58242;51.250;-1.118;2023-07-20T11:42:21;0.90;;;0.90;;
70667;SDS011;58242;51.250;-1.118;2023-07-20T11:44:47;1.20;;;1.10;;
70667;SDS011;58242;51.250;-1.118;2023-07-20T11:47:16;1.50;;;1.50;;
70667;SDS011;58242;51.250;-1.118;2023-07-20T11:49:43;1.60;;;1.50;;
70667;SDS011;58242;51.250;-1.118;2023-07-20T11:52:18;1.50;;;1.50;;
70667;SDS011;58242;51.250;-1.118;2023-07-20T11:54:43;1.50;;;1.50;;
70667;SDS011;58242;51.250;-1.118;2023-07-20T11:57:19;1.55;;;1.55;;
70667;SDS011;58242;51.250;-1.118;2023-07-20T11:59:58;1.50;;;1.50;;
70667;SDS011;58242;51.250;-1.118;2023-07-20T12:02:27;1.42;;;1.42;;
70667;SDS011;58242;51.250;-1.118;2023-07-20T12:04:54;1.33;;;1.33;;
70667;SDS011;58242;51.250;-1.118;2023-07-20T12:07:19;1.80;;;1.70;;
70667;SDS011;58242;51.250;-1.118;2023-07-20T12:09:45;1.67;;;1.67;;
70667;SDS011;58242;51.250;-1.118;2023-07-20T12:12:27;1.30;;;1.30;;
70667;SDS011;58242;51.250;-1.118;2023-07-20T12:14:53;1.60;;;1.60;;
70667;SDS011;58242;51.250;-1.118;2023-07-20T12:17:18;1.60;;;1.60;;
70667;SDS011;58242;51.250;-1.118;2023-07-20T12:19:43;1.30;;;1.30;;
70667;SDS011;58242;51.250;-1.118;2023-07-20T12:22:09;1.50;;;1.50;;
70667;SDS011;58242;51.250;-1.118;2023-07-20T12:24:36;1.80;;;1.70;;
70667;SDS011;58242;51.250;-1.118;2023-07-20T12:27:01;1.60;;;1.60;;
70667;SDS011;58242;51.250;-1.118;2023-07-20T12:29:28;1.67;;;1.58;;
70667;SDS011;58242;51.250;-1.118;2023-07-20T12:31:53;1.38;;;1.38;;
70667;SDS011;58242;51.250;-1.118;2023-07-20T12:34:19;1.50;;;1.50;;
70667;SDS011;58242;51.250;-1.118;2023-07-20T12:36:44;1.38;;;1.35;;
70667;SDS011;58242;51.250;-1.118;2023-07-20T12:39:09;1.50;;;1.50;;
70667;SDS011;58242;51.250;-1.118;2023-07-20T12:41:35;1.50;;;1.50;;
70667;SDS011;58242;51.250;-1.118;2023-07-20T12:44:00;1.42;;;1.42;;
70667;SDS011;58242;51.250;-1.118;2023-07-20T12:46:25;1.38;;;1.38;;
70667;SDS011;58242;51.250;-1.118;2023-07-20T12:48:51;1.40;;;1.40;;
70667;SDS011;58242;51.250;-1.118;2023-07-20T12:51:16;1.40;;;1.40;;
70667;SDS011;58242;51.250;-1.118;2023-07-20T12:53:41;1.40;;;1.40;;
70667;SDS011;58242;51.250;-1.118;2023-07-20T12:56:07;1.30;;;1.30;;
70667;SDS011;58242;51.250;-1.118;2023-07-20T12:58:32;1.30;;;1.30;;
70667;SDS011;58242;51.250;-1.118;2023-07-20T13:00:58;1.40;;;1.30;;
70667;SDS011;58242;51.250;-1.118;2023-07-20T13:03:23;1.20;;;1.20;;
70667;SDS011;58242;51.250;-1.118;2023-07-20T13:05:48;1.13;;;1.13;;
70667;SDS011;58242;51.250;-1.118;2023-07-20T13:08:15;1.10;;;1.10;;
70667;SDS011;58242;51.250;-1.118;2023-07-20T13:10:40;1.40;;;1.40;;
70667;SDS011;58242;51.250;-1.118;2023-07-20T13:13:06;1.40;;;1.40;;
70667;SDS011;58242;51.250;-1.118;2023-07-20T13:15:32;1.00;;;1.00;;
70667;SDS011;58242;51.250;-1.118;2023-07-20T13:18:05;1.08;;;1.08;;
70667;SDS011;58242;51.250;-1.118;2023-07-20T13:20:31;1.08;;;1.08;;
70667;SDS011;58242;51.250;-1.118;2023-07-20T13:22:56;0.93;;;0.90;;
70667;SDS011;58242;51.250;-1.118;2023-07-20T13:25:21;0.95;;;0.95;;
70667;SDS011;58242;51.250;-1.118;2023-07-20T13:27:47;0.70;;;0.70;;
70667;SDS011;58242;51.250;-1.118;2023-07-20T13:30:12;0.77;;;0.77;;
70667;SDS011;58242;51.250;-1.118;2023-07-20T13:32:41;0.98;;;0.98;;
70667;SDS011;58242;51.250;-1.118;2023-07-20T13:35:10;0.82;;;0.82;;
70667;SDS011;58242;51.250;-1.118;2023-07-20T13:37:36;0.93;;;0.93;;
70667;SDS011;58242;51.250;-1.118;2023-07-20T13:40:02;0.90;;;0.90;;
70667;SDS011;58242;51.250;-1.118;2023-07-20T13:42:30;0.82;;;0.82;;
70667;SDS011;58242;51.250;-1.118;2023-07-20T13:44:55;0.70;;;0.70;;
70667;SDS011;58242;51.250;-1.118;2023-07-20T13:47:20;0.90;;;0.90;;
70667;SDS011;58242;51.250;-1.118;2023-07-20T13:49:46;1.00;;;1.00;;
70667;SDS011;58242;51.250;-1.118;2023-07-20T13:52:11;1.00;;;1.00;;
70667;SDS011;58242;51.250;-1.118;2023-07-20T13:54:36;1.20;;;1.20;;
70667;SDS011;58242;51.250;-1.118;2023-07-20T13:57:02;1.08;;;1.08;;
70667;SDS011;58242;51.250;-1.118;2023-07-20T13:59:27;1.05;;;1.02;;
70667;SDS011;58242;51.250;-1.118;2023-07-20T14:01:53;0.93;;;0.93;;
70667;SDS011;58242;51.250;-1.118;2023-07-20T14:04:18;1.13;;;1.13;;
70667;SDS011;58242;51.250;-1.118;2023-07-20T14:06:43;1.10;;;1.10;;
70667;SDS011;58242;51.250;-1.118;2023-07-20T14:09:09;1.27;;;1.27;;
70667;SDS011;58242;51.250;-1.118;2023-07-20T14:11:34;1.20;;;1.20;;
70667;SDS011;58242;51.250;-1.118;2023-07-20T14:13:59;1.35;;;1.35;;
70667;SDS011;58242;51.250;-1.118;2023-07-20T14:16:25;1.52;;;1.52;;
70667;SDS011;58242;51.250;-1.118;2023-07-20T14:18:51;2.13;;;2.13;;
70667;SDS011;58242;51.250;-1.118;2023-07-20T14:21:17;1.30;;;1.30;;
70667;SDS011;58242;51.250;-1.118;2023-07-20T14:23:48;1.58;;;1.58;;
70667;SDS011;58242;51.250;-1.118;2023-07-20T14:26:17;1.40;;;1.40;;
70667;SDS011;58242;51.250;-1.118;2023-07-20T14:28:43;1.20;;;1.20;;
70667;SDS011;58242;51.250;-1.118;2023-07-20T14:31:08;1.05;;;1.05;;
70667;SDS011;58242;51.250;-1.118;2023-07-20T14:33:33;1.35;;;1.35;;
70667;SDS011;58242;51.250;-1.118;2023-07-20T14:35:59;1.10;;;1.10;;
70667;SDS011;58242;51.250;-1.118;2023-07-20T14:38:26;1.35;;;1.35;;
70667;SDS011;58242;51.250;-1.118;2023-07-20T14:40:52;1.58;;;1.58;;
70667;SDS011;58242;51.250;-1.118;2023-07-20T14:43:17;1.00;;;1.00;;
70667;SDS011;58242;51.250;-1.118;2023-07-20T14:45:42;1.30;;;1.30;;
70667;SDS011;58242;51.250;-1.118;2023-07-20T14:48:08;1.23;;;1.20;;
70667;SDS011;58242;51.250;-1.118;2023-07-20T14:50:33;1.48;;;1.48;;
70667;SDS011;58242;51.250;-1.118;2023-07-20T14:52:59;1.35;;;1.35;;